createdAt,value
2022-09-12T00:01:29.963Z,19.93
2022-09-12T00:03:59.066Z,20.23
2022-09-12T00:06:31.838Z,20.10
2022-09-12T00:09:08.470Z,20.15
2022-09-12T00:11:37.482Z,19.84
2022-09-12T00:14:05.151Z,19.96
2022-09-12T00:16:33.635Z,19.91
2022-09-12T00:19:01.420Z,19.68
2022-09-12T00:21:28.929Z,19.60
2022-09-12T00:23:55.559Z,19.60
2022-09-12T00:26:22.175Z,19.60
2022-09-12T00:28:49.401Z,19.36
2022-09-12T00:31:19.265Z,19.37
2022-09-12T00:33:46.706Z,19.47
2022-09-12T00:36:16.737Z,19.42
2022-09-12T00:38:45.282Z,19.38
2022-09-12T00:41:35.267Z,19.41
2022-09-12T00:44:21.731Z,19.35
2022-09-12T00:46:51.371Z,19.30
2022-09-12T00:49:28.124Z,19.41
2022-09-12T00:52:08.684Z,19.38
2022-09-12T00:54:47.658Z,19.39
2022-09-12T00:57:16.545Z,19.44
2022-09-12T01:00:15.470Z,19.40
2022-09-12T01:02:46.073Z,19.35
2022-09-12T01:05:13.740Z,19.31
2022-09-12T01:07:41.657Z,19.27
2022-09-12T01:10:09.846Z,19.17
2022-09-12T01:12:38.227Z,19.27
2022-09-12T01:15:05.311Z,19.20
2022-09-12T01:17:44.934Z,19.20
2022-09-12T01:20:17.368Z,19.12
2022-09-12T01:23:21.761Z,19.17
2022-09-12T01:26:02.966Z,19.21
2022-09-12T01:29:00.675Z,19.27
2022-09-12T01:31:42.368Z,19.24
2022-09-12T01:34:28.810Z,19.26
2022-09-12T01:37:02.371Z,19.17
2022-09-12T01:39:53.922Z,19.28
2022-09-12T01:42:32.880Z,19.31
2022-09-12T01:44:59.425Z,19.27
2022-09-12T01:47:51.395Z,19.25
2022-09-12T01:50:22.879Z,19.06
2022-09-12T01:52:54.731Z,19.20
2022-09-12T01:55:28.673Z,19.24
2022-09-12T01:58:06.092Z,18.98
2022-09-12T02:00:35.637Z,18.76
2022-09-12T02:03:09.528Z,18.99
2022-09-12T02:05:44.679Z,19.21
2022-09-12T02:08:38.093Z,19.19
2022-09-12T02:11:11.073Z,19.04
2022-09-12T02:13:40.397Z,19.29
2022-09-12T02:16:17.052Z,19.23
2022-09-12T02:18:52.382Z,18.99
2022-09-12T02:21:22.416Z,19.27
2022-09-12T02:23:57.333Z,19.07
2022-09-12T02:26:29.603Z,19.04
2022-09-12T02:28:57.479Z,18.94
2022-09-12T02:31:42.602Z,19.10
2022-09-12T02:34:21.220Z,19.25
2022-09-12T02:36:56.857Z,19.31
2022-09-12T02:39:23.577Z,19.26
2022-09-12T02:41:58.092Z,19.37
2022-09-12T02:44:26.883Z,19.31
2022-09-12T02:47:03.918Z,19.33
2022-09-12T02:49:30.783Z,19.34
2022-09-12T02:51:57.669Z,19.52
2022-09-12T02:54:25.854Z,19.57
2022-09-12T02:56:52.284Z,19.53
2022-09-12T02:59:21.721Z,19.34
2022-09-12T03:02:07.168Z,19.56
2022-09-12T03:04:43.328Z,19.41
2022-09-12T03:07:42.540Z,19.58
2022-09-12T03:10:23.175Z,19.60
2022-09-12T03:13:00.936Z,19.49
2022-09-12T03:15:27.450Z,19.42
2022-09-12T03:18:12.794Z,19.43
2022-09-12T03:20:39.312Z,19.42
2022-09-12T03:23:15.533Z,19.23
2022-09-12T03:25:53.386Z,19.19
2022-09-12T03:28:22.229Z,19.30
2022-09-12T03:30:54.841Z,19.46
2022-09-12T03:33:23.617Z,19.38
2022-09-12T03:35:51.323Z,19.38
2022-09-12T03:38:18.849Z,19.27
2022-09-12T03:40:49.326Z,19.11
2022-09-12T03:43:18.153Z,19.14
2022-09-12T03:45:44.799Z,18.98
2022-09-12T03:48:11.471Z,18.95
2022-09-12T03:50:38.016Z,18.95
2022-09-12T03:53:04.725Z,18.90
2022-09-12T03:55:31.388Z,18.84
2022-09-12T03:57:58.098Z,18.57
2022-09-12T04:00:24.838Z,18.81
2022-09-12T04:02:57.021Z,18.76
2022-09-12T04:05:25.839Z,18.84
2022-09-12T04:07:52.648Z,18.85
2022-09-12T04:10:19.383Z,18.98
2022-09-12T04:12:45.981Z,19.01
2022-09-12T04:15:12.660Z,18.94
2022-09-12T04:17:39.288Z,18.97
2022-09-12T04:20:06.890Z,19.15
2022-09-12T04:22:33.799Z,19.19
2022-09-12T04:25:00.593Z,19.00
2022-09-12T04:27:27.168Z,19.33
2022-09-12T04:29:55.280Z,19.27
2022-09-12T04:32:22.507Z,19.25
2022-09-12T04:34:49.185Z,19.31
2022-09-12T04:37:16.895Z,19.31
2022-09-12T04:39:43.636Z,19.22
2022-09-12T04:42:10.403Z,19.27
2022-09-12T04:44:37.586Z,19.37
2022-09-12T04:47:04.285Z,19.34
2022-09-12T04:49:31.124Z,19.27
2022-09-12T04:51:57.808Z,19.07
2022-09-12T04:54:24.718Z,19.04
2022-09-12T04:56:52.599Z,19.26
2022-09-12T04:59:21.461Z,19.39
2022-09-12T05:01:48.741Z,19.41
2022-09-12T05:04:15.492Z,19.37
2022-09-12T05:06:43.465Z,19.27
2022-09-12T05:09:14.407Z,19.30
2022-09-12T05:14:29.960Z,19.06
2022-09-12T05:16:59.993Z,19.17
2022-09-12T05:19:27.483Z,18.94
2022-09-12T05:21:54.015Z,18.92
2022-09-12T05:24:20.681Z,19.08
2022-09-12T05:26:47.513Z,18.96
2022-09-12T05:29:14.159Z,18.79
2022-09-12T05:31:41.173Z,18.83
2022-09-12T05:34:10.222Z,18.75
2022-09-12T05:36:37.349Z,19.01
2022-09-12T05:39:04.723Z,19.18
2022-09-12T05:41:33.605Z,19.07
2022-09-12T05:44:02.646Z,19.66
2022-09-12T05:46:31.841Z,19.71
2022-09-12T05:49:04.133Z,19.94
2022-09-12T05:51:34.442Z,20.27
2022-09-12T05:54:04.192Z,20.28
2022-09-12T05:56:33.518Z,20.49
2022-09-12T05:59:02.987Z,20.63
2022-09-12T06:01:31.607Z,20.99
2022-09-12T06:04:03.307Z,21.07
2022-09-12T06:06:31.570Z,21.07
2022-09-12T06:08:59.914Z,20.96
2022-09-12T06:11:29.004Z,21.15
2022-09-12T06:13:57.922Z,21.32
2022-09-12T06:16:27.587Z,21.25
2022-09-12T06:18:56.265Z,21.52
2022-09-12T06:21:24.132Z,21.80
2022-09-12T06:23:50.739Z,21.69
2022-09-12T06:26:22.470Z,21.51
2022-09-12T06:28:50.185Z,21.35
2022-09-12T06:31:22.860Z,21.50
2022-09-12T06:33:51.954Z,21.54
2022-09-12T06:36:22.586Z,21.73
2022-09-12T06:38:54.681Z,21.88
2022-09-12T06:41:21.503Z,22.08
2022-09-12T06:43:48.243Z,22.17
2022-09-12T06:46:15.003Z,22.26
2022-09-12T06:48:42.316Z,22.40
2022-09-12T06:51:15.534Z,22.50
2022-09-12T06:53:43.204Z,22.79
2022-09-12T06:56:19.268Z,23.13
2022-09-12T06:58:47.243Z,23.34
2022-09-12T07:01:20.782Z,23.19
2022-09-12T07:03:50.133Z,23.08
2022-09-12T07:06:19.476Z,22.90
2022-09-12T07:08:47.047Z,23.13
2022-09-12T07:11:15.016Z,23.23
2022-09-12T07:13:43.142Z,23.58
2022-09-12T07:16:10.623Z,23.83
2022-09-12T07:18:38.374Z,23.60
2022-09-12T07:21:11.294Z,23.40
2022-09-12T07:23:38.419Z,23.33
2022-09-12T07:26:05.166Z,22.95
2022-09-12T07:28:34.262Z,23.18
2022-09-12T07:31:08.191Z,23.46
2022-09-12T07:33:35.290Z,23.43
2022-09-12T07:36:11.709Z,23.47
2022-09-12T07:38:39.354Z,23.67
2022-09-12T07:41:21.051Z,23.83
2022-09-12T07:43:48.531Z,24.10
2022-09-12T07:46:15.167Z,24.22
2022-09-12T07:48:41.790Z,24.11
2022-09-12T07:51:10.932Z,23.98
2022-09-12T07:53:40.053Z,24.02
2022-09-12T07:56:08.147Z,24.01
2022-09-12T07:58:37.121Z,24.00
2022-09-12T08:01:08.868Z,23.98
2022-09-12T08:03:40.102Z,24.06
2022-09-12T08:06:27.905Z,24.48
2022-09-12T08:08:56.307Z,24.67
2022-09-12T08:11:24.251Z,24.63
2022-09-12T08:13:55.271Z,24.86
2022-09-12T08:16:27.157Z,25.02
2022-09-12T08:18:53.802Z,24.96
2022-09-12T08:21:23.116Z,24.96
2022-09-12T08:23:58.265Z,25.30
2022-09-12T08:26:24.951Z,25.64
2022-09-12T08:28:52.031Z,25.34
2022-09-12T08:31:21.024Z,25.08
2022-09-12T08:33:48.059Z,25.11
2022-09-12T08:36:26.319Z,25.26
2022-09-12T08:38:59.896Z,25.36
2022-09-12T08:41:40.796Z,25.86
2022-09-12T08:44:10.347Z,25.53
2022-09-12T08:47:04.347Z,25.91
2022-09-12T08:49:49.053Z,26.13
2022-09-12T08:52:54.717Z,26.11
2022-09-12T08:55:32.760Z,26.35
2022-09-12T08:58:01.513Z,26.25
2022-09-12T09:00:40.592Z,26.61
2022-09-12T09:03:44.410Z,26.71
2022-09-12T09:06:14.217Z,26.69
2022-09-12T09:08:51.991Z,26.86
2022-09-12T09:11:29.716Z,26.77
2022-09-12T09:14:30.936Z,26.89
2022-09-12T09:16:58.658Z,26.58
2022-09-12T09:19:33.066Z,27.11
2022-09-12T09:22:14.203Z,27.04
2022-09-12T09:24:49.548Z,27.17
2022-09-12T09:27:40.319Z,27.16
2022-09-12T09:30:19.169Z,27.25
2022-09-12T09:32:52.987Z,27.30
2022-09-12T09:35:36.331Z,26.91
2022-09-12T09:38:28.648Z,26.89
2022-09-12T09:41:04.787Z,27.14
2022-09-12T09:43:31.594Z,27.26
2022-09-12T09:46:00.518Z,26.84
2022-09-12T09:48:33.768Z,27.09
2022-09-12T09:51:03.181Z,27.16
2022-09-12T09:53:41.532Z,27.99
2022-09-12T09:56:37.066Z,28.04
2022-09-12T09:59:33.768Z,27.61
2022-09-12T10:02:21.825Z,27.66
2022-09-12T10:04:58.815Z,27.94
2022-09-12T10:07:27.078Z,28.20
2022-09-12T10:10:17.020Z,28.24
2022-09-12T10:12:44.468Z,27.88
2022-09-12T10:15:31.380Z,27.62
2022-09-12T10:17:58.917Z,28.29
2022-09-12T10:20:44.739Z,28.23
2022-09-12T10:23:20.468Z,28.35
2022-09-12T10:25:53.610Z,27.94
2022-09-12T10:28:27.148Z,28.36
2022-09-12T10:30:56.196Z,28.80
2022-09-12T10:33:25.872Z,28.50
2022-09-12T10:35:54.780Z,28.29
2022-09-12T10:38:28.480Z,28.44
2022-09-12T10:41:03.642Z,28.25
2022-09-12T10:43:34.629Z,27.86
2022-09-12T10:46:16.550Z,28.29
2022-09-12T10:48:44.721Z,28.36
2022-09-12T10:51:26.367Z,27.78
2022-09-12T10:54:05.283Z,27.64
2022-09-12T10:57:01.263Z,27.96
2022-09-12T10:59:31.455Z,28.43
2022-09-12T11:02:14.926Z,28.27
2022-09-12T11:04:50.500Z,28.78
2022-09-12T11:07:20.143Z,28.67
2022-09-12T11:09:46.661Z,28.54
2022-09-12T11:12:13.529Z,28.71
2022-09-12T11:14:52.142Z,28.55
2022-09-12T11:17:25.896Z,28.79
2022-09-12T11:20:10.578Z,29.30
2022-09-12T11:23:00.035Z,29.14
2022-09-12T11:25:40.583Z,29.65
2022-09-12T11:28:47.193Z,29.19
2022-09-12T11:31:13.978Z,29.21
2022-09-12T11:33:56.547Z,29.09
2022-09-12T11:37:09.908Z,29.79
2022-09-12T11:39:40.334Z,30.05
2022-09-12T11:42:18.226Z,30.05
2022-09-12T11:44:58.035Z,29.36
2022-09-12T11:47:26.518Z,28.65
2022-09-12T11:49:54.801Z,28.81
2022-09-12T11:52:25.137Z,29.65
2022-09-12T11:55:17.210Z,29.80
2022-09-12T11:57:54.312Z,29.52
2022-09-12T12:00:34.137Z,29.46
2022-09-12T12:03:06.749Z,29.31
2022-09-12T12:06:11.300Z,29.25
2022-09-12T12:08:40.818Z,29.14
2022-09-12T12:11:08.889Z,29.50
2022-09-12T12:13:49.762Z,29.61
2022-09-12T12:16:33.699Z,29.81
2022-09-12T12:19:02.748Z,30.02
2022-09-12T12:21:32.142Z,29.60
2022-09-12T12:24:09.939Z,29.36
2022-09-12T12:26:39.705Z,28.96
2022-09-12T12:29:10.398Z,28.97
2022-09-12T12:32:05.772Z,29.22
2022-09-12T12:34:32.352Z,29.69
2022-09-12T12:37:19.787Z,29.98
2022-09-12T12:39:50.359Z,30.33
2022-09-12T12:42:46.566Z,29.93
2022-09-12T12:45:19.028Z,29.40
2022-09-12T12:47:49.163Z,29.71
2022-09-12T12:50:21.434Z,29.60
2022-09-12T12:53:00.518Z,29.79
2022-09-12T12:55:51.648Z,29.55
2022-09-12T12:58:40.725Z,29.53
2022-09-12T13:01:15.951Z,28.70
2022-09-12T13:03:46.733Z,28.79
2022-09-12T13:06:34.164Z,29.20
2022-09-12T13:09:04.779Z,29.02
2022-09-12T13:11:36.817Z,28.78
2022-09-12T13:14:07.185Z,29.12
2022-09-12T13:16:55.751Z,29.21
2022-09-12T13:19:29.167Z,29.15
2022-09-12T13:22:10.107Z,28.33
2022-09-12T13:24:45.034Z,28.61
2022-09-12T13:27:25.975Z,28.12
2022-09-12T13:30:15.661Z,28.10
2022-09-12T13:32:43.969Z,28.18
2022-09-12T13:35:34.327Z,28.59
2022-09-12T13:38:12.242Z,28.71
2022-09-12T13:40:54.068Z,28.95
2022-09-12T13:43:38.682Z,29.18
2022-09-12T13:46:07.580Z,29.72
2022-09-12T13:48:34.770Z,29.57
2022-09-12T13:51:03.921Z,29.39
2022-09-12T13:53:43.704Z,29.01
2022-09-12T13:56:17.304Z,28.60
2022-09-12T13:59:00.379Z,28.35
2022-09-12T14:01:45.033Z,28.35
2022-09-12T14:04:39.374Z,28.43
2022-09-12T14:07:21.231Z,28.04
2022-09-12T14:09:59.898Z,27.97
2022-09-12T14:12:36.718Z,27.93
2022-09-12T14:15:04.092Z,27.97
2022-09-12T14:17:31.695Z,28.01
2022-09-12T14:20:05.522Z,28.12
2022-09-12T14:22:34.235Z,28.58
2022-09-12T14:25:02.060Z,28.81
2022-09-12T14:27:37.413Z,28.88
2022-09-12T14:30:30.491Z,28.93
2022-09-12T14:33:12.464Z,28.86
2022-09-12T14:36:18.342Z,28.83
2022-09-12T14:38:47.928Z,28.63
2022-09-12T14:41:23.492Z,28.70
2022-09-12T14:43:55.321Z,28.58
2022-09-12T14:46:28.557Z,28.36
2022-09-12T14:49:17.588Z,28.34
2022-09-12T14:51:56.526Z,28.28
2022-09-12T14:54:33.011Z,28.24
2022-09-12T14:57:03.139Z,28.12
2022-09-12T14:59:34.440Z,28.08
2022-09-12T15:02:20.000Z,27.69
2022-09-12T15:04:50.923Z,27.48
2022-09-12T15:07:28.519Z,27.25
2022-09-12T15:09:55.653Z,27.14
2022-09-12T15:12:23.152Z,27.16
2022-09-12T15:14:49.745Z,27.26
2022-09-12T15:17:16.747Z,27.01
2022-09-12T15:19:43.364Z,27.00
2022-09-12T15:22:13.888Z,26.95
2022-09-12T15:24:40.582Z,26.77
2022-09-12T15:27:13.419Z,26.93
2022-09-12T15:29:40.134Z,26.97
2022-09-12T15:32:15.054Z,26.82
2022-09-12T15:34:41.624Z,27.05
2022-09-12T15:37:14.381Z,27.00
2022-09-12T15:39:41.370Z,26.94
2022-09-12T15:42:09.909Z,26.97
2022-09-12T15:44:36.489Z,26.95
2022-09-12T15:47:03.151Z,26.89
2022-09-12T15:49:29.987Z,26.81
2022-09-12T15:51:56.612Z,26.72
2022-09-12T15:54:23.349Z,26.56
2022-09-12T15:56:50.203Z,26.76
2022-09-12T15:59:16.785Z,26.72
2022-09-12T16:01:43.452Z,26.56
2022-09-12T16:04:23.689Z,26.59
2022-09-12T16:06:51.485Z,26.38
2022-09-12T16:09:18.350Z,26.28
2022-09-12T16:11:45.493Z,26.45
2022-09-12T16:14:17.273Z,26.42
2022-09-12T16:16:45.138Z,26.29
2022-09-12T16:19:12.409Z,26.19
2022-09-12T16:21:39.110Z,25.98
2022-09-12T16:24:05.967Z,25.84
2022-09-12T16:26:32.590Z,26.00
2022-09-12T16:29:00.108Z,26.03
2022-09-12T16:31:27.623Z,25.95
2022-09-12T16:33:54.605Z,25.88
2022-09-12T16:36:22.224Z,25.67
2022-09-12T16:38:53.667Z,25.74
2022-09-12T16:41:24.697Z,25.70
2022-09-12T16:43:51.893Z,25.58
2022-09-12T16:46:28.744Z,25.35
2022-09-12T16:48:58.031Z,25.24
2022-09-12T16:51:27.616Z,25.23
2022-09-12T16:53:55.457Z,25.07
2022-09-12T16:56:22.756Z,24.79
2022-09-12T16:58:49.795Z,24.96
2022-09-12T17:01:19.566Z,24.94
2022-09-12T17:03:47.139Z,24.81
2022-09-12T17:06:18.407Z,24.84
2022-09-12T17:08:47.982Z,24.51
2022-09-12T17:11:17.612Z,24.76
2022-09-12T17:14:06.497Z,24.39
2022-09-12T17:16:35.333Z,24.72
2022-09-12T17:19:02.626Z,24.64
2022-09-12T17:21:29.262Z,24.66
2022-09-12T17:23:56.025Z,24.34
2022-09-12T17:26:22.838Z,24.66
2022-09-12T17:28:49.715Z,24.56
2022-09-12T17:31:17.166Z,24.41
2022-09-12T17:33:44.119Z,24.44
2022-09-12T17:36:15.264Z,24.30
2022-09-12T17:38:44.439Z,24.23
2022-09-12T17:41:20.110Z,24.21
2022-09-12T17:43:50.914Z,24.20
2022-09-12T17:46:19.141Z,24.12
2022-09-12T17:48:50.442Z,24.05
2022-09-12T17:51:17.301Z,23.96
2022-09-12T17:53:44.189Z,23.96
2022-09-12T17:56:11.694Z,23.88
2022-09-12T17:58:38.859Z,23.82
2022-09-12T18:01:31.950Z,23.70
2022-09-12T18:04:00.658Z,23.64
2022-09-12T18:06:32.035Z,23.53
2022-09-12T18:09:07.065Z,23.56
2022-09-12T18:11:33.705Z,23.53
2022-09-12T18:14:01.314Z,23.43
2022-09-12T18:16:31.594Z,23.44
2022-09-12T18:19:01.695Z,23.27
2022-09-12T18:21:29.410Z,23.42
2022-09-12T18:23:59.311Z,23.43
2022-09-12T18:26:27.810Z,23.44
2022-09-12T18:28:55.182Z,23.20
2022-09-12T18:31:25.477Z,23.29
2022-09-12T18:33:52.687Z,23.23
2022-09-12T18:36:20.301Z,23.15
2022-09-12T18:38:48.115Z,22.98
2022-09-12T18:41:20.775Z,22.73
2022-09-12T18:43:48.314Z,22.63
2022-09-12T18:46:19.562Z,22.59
2022-09-12T18:48:47.083Z,22.43
2022-09-12T18:51:18.202Z,22.51
2022-09-12T18:53:56.436Z,22.28
2022-09-12T18:56:26.428Z,22.32
2022-09-12T18:58:55.950Z,22.40
2022-09-12T19:01:25.355Z,22.28
2022-09-12T19:03:52.415Z,22.14
2022-09-12T19:06:27.360Z,22.08
2022-09-12T19:08:55.163Z,21.96
2022-09-12T19:11:23.247Z,21.94
2022-09-12T19:13:50.590Z,21.90
2022-09-12T19:16:20.878Z,21.71
2022-09-12T19:18:52.241Z,21.57
2022-09-12T19:21:24.753Z,21.41
2022-09-12T19:23:52.713Z,21.32
2022-09-12T19:26:20.699Z,21.15
2022-09-12T19:28:47.662Z,21.12
2022-09-12T19:31:18.860Z,21.13
2022-09-12T19:33:46.255Z,20.81
2022-09-12T19:36:40.870Z,20.89
2022-09-12T19:39:02.336Z,20.87
2022-09-12T19:41:29.018Z,20.79
2022-09-12T19:43:56.471Z,20.77
2022-09-12T19:46:24.896Z,20.84
2022-09-12T19:48:55.549Z,20.74
2022-09-12T19:51:24.317Z,20.79
2022-09-12T19:53:51.750Z,20.79
2022-09-12T19:56:18.516Z,20.71
2022-09-12T19:58:47.741Z,20.71
2022-09-12T20:01:25.185Z,20.63
2022-09-12T20:03:55.168Z,20.53
2022-09-12T20:06:22.101Z,20.36
2022-09-12T20:08:48.802Z,20.45
2022-09-12T20:11:18.113Z,20.54
2022-09-12T20:13:45.798Z,20.56
2022-09-12T20:16:22.659Z,20.46
2022-09-12T20:18:57.501Z,20.51
2022-09-12T20:21:31.045Z,20.58
2022-09-12T20:24:03.484Z,20.42
2022-09-12T20:26:30.809Z,20.61
2022-09-12T20:28:57.409Z,20.65
2022-09-12T20:31:24.095Z,20.63
2022-09-12T20:33:52.057Z,20.42
2022-09-12T20:36:20.625Z,20.58
2022-09-12T20:38:52.322Z,20.37
2022-09-12T20:41:20.494Z,20.27
2022-09-12T20:43:51.298Z,20.15
2022-09-12T20:46:21.649Z,20.02
2022-09-12T20:48:49.026Z,20.07
2022-09-12T20:51:17.845Z,19.99
2022-09-12T20:53:44.455Z,19.86
2022-09-12T20:56:11.149Z,19.78
2022-09-12T20:58:43.054Z,19.63
2022-09-12T21:01:12.386Z,19.43
2022-09-12T21:03:40.383Z,19.34
2022-09-12T21:06:08.505Z,19.30
2022-09-12T21:08:36.238Z,19.26
2022-09-12T21:11:03.517Z,19.12
2022-09-12T21:13:30.365Z,19.19
2022-09-12T21:16:10.651Z,19.27
2022-09-12T21:18:37.328Z,19.34
2022-09-12T21:21:05.776Z,19.32
2022-09-12T21:23:34.415Z,19.53
2022-09-12T21:26:01.638Z,19.55
2022-09-12T21:28:28.326Z,19.34
2022-09-12T21:30:56.117Z,19.53
2022-09-12T21:33:22.931Z,19.44
2022-09-12T21:35:50.159Z,19.45
2022-09-12T21:38:18.694Z,19.22
2022-09-12T21:40:46.151Z,19.44
2022-09-12T21:43:13.377Z,19.12
2022-09-12T21:45:40.543Z,19.38
2022-09-12T21:48:07.149Z,19.35
2022-09-12T21:50:33.756Z,19.31
2022-09-12T21:53:00.430Z,19.30
2022-09-12T21:55:27.431Z,19.40
2022-09-12T21:57:55.293Z,19.20
2022-09-12T22:00:22.669Z,19.37
2022-09-12T22:02:49.556Z,19.34
2022-09-12T22:05:17.269Z,19.18
2022-09-12T22:07:44.084Z,19.29
2022-09-12T22:10:10.772Z,19.24
2022-09-12T22:12:37.431Z,19.12
2022-09-12T22:15:23.009Z,19.22
2022-09-12T22:17:51.062Z,19.17
2022-09-12T22:20:17.851Z,18.95
2022-09-12T22:23:03.158Z,19.07
2022-09-12T22:25:30.896Z,19.12
2022-09-12T22:27:58.291Z,19.10
2022-09-12T22:30:27.381Z,19.07
2022-09-12T22:32:54.188Z,18.96
2022-09-12T22:35:21.066Z,18.90
2022-09-12T22:37:47.929Z,18.68
2022-09-12T22:40:15.760Z,18.92
2022-09-12T22:42:42.472Z,18.93
2022-09-12T22:45:09.730Z,19.04
2022-09-12T22:47:36.397Z,19.02
2022-09-12T22:50:03.224Z,19.03
2022-09-12T22:52:29.800Z,19.02
2022-09-12T22:54:57.011Z,18.95
2022-09-12T22:57:23.596Z,18.87
2022-09-12T22:59:50.268Z,18.77
2022-09-12T23:02:16.859Z,18.51
2022-09-12T23:04:44.206Z,18.71
2022-09-12T23:07:11.082Z,18.67
2022-09-12T23:09:37.662Z,18.41
2022-09-12T23:12:04.500Z,18.62
2022-09-12T23:14:31.147Z,18.50
2022-09-12T23:16:57.773Z,18.51
2022-09-12T23:19:24.450Z,18.50
2022-09-12T23:21:51.179Z,18.32
2022-09-12T23:24:17.975Z,18.16
2022-09-12T23:26:44.570Z,18.30
2022-09-12T23:29:11.498Z,18.27
2022-09-12T23:31:38.239Z,18.25
2022-09-12T23:34:09.310Z,18.25
2022-09-12T23:36:36.214Z,18.20
2022-09-12T23:39:03.387Z,18.24
2022-09-12T23:41:29.994Z,17.86
2022-09-12T23:43:56.964Z,18.22
2022-09-12T23:46:24.077Z,18.24
2022-09-12T23:48:53.189Z,17.86
2022-09-12T23:51:21.672Z,18.21
2022-09-12T23:53:48.331Z,18.15
2022-09-12T23:56:14.928Z,18.04
2022-09-12T23:58:41.805Z,18.03
